Time;durP1;ratioP1;P1;durP2;ratioP2;P2;SDS_P1;SDS_P2;PMS_P1;PMS_P2;Temp;Humidity;BMP_temperature;BMP_pressure;BME280_temperature;BME280_humidity;BME280_pressure;Samples;Min_cycle;Max_cycle;Signal;HPM_P1;HPM_P2
2024/03/24 00:00:17;;;;;;;;;2.00;2.00;;;;;;;;5002155;28;45646;-76
2024/03/24 00:02:42;;;;;;;;;3.33;2.00;;;;;;;;5019901;28;45246;-75
2024/03/24 00:05:07;;;;;;;;;2.00;2.00;;;;;;;;5019375;28;45329;-75
2024/03/24 00:07:33;;;;;;;;;2.00;2.00;;;;;;;;5000380;28;47641;-76
2024/03/24 00:09:58;;;;;;;;;2.00;2.00;;;;;;;;4982656;28;45761;-75
2024/03/24 00:12:23;;;;;;;;;3.33;2.00;;;;;;;;4982186;28;45318;-76
2024/03/24 00:14:48;;;;;;;;;4.33;2.33;;;;;;;;4979941;28;45445;-75
2024/03/24 00:17:13;;;;;;;;;4.67;3.00;;;;;;;;4980041;28;45430;-75
2024/03/24 00:19:39;;;;;;;;;8.33;5.00;;;;;;;;4978862;28;45303;-75
2024/03/24 00:22:04;;;;;;;;;5.67;4.33;;;;;;;;4980059;28;45274;-75
2024/03/24 00:24:29;;;;;;;;;4.33;4.33;;;;;;;;4979715;28;45690;-76
2024/03/24 00:26:55;;;;;;;;;4.00;3.00;;;;;;;;4979666;28;46269;-75
2024/03/24 00:29:20;;;;;;;;;3.33;3.33;;;;;;;;4979810;28;45338;-75
2024/03/24 00:31:45;;;;;;;;;5.00;3.33;;;;;;;;4957721;28;45358;-75
2024/03/24 00:34:10;;;;;;;;;3.50;3.50;;;;;;;;4961693;28;47275;-75
2024/03/24 00:36:36;;;;;;;;;5.00;4.00;;;;;;;;4979171;28;45487;-76
2024/03/24 00:39:01;;;;;;;;;3.67;3.00;;;;;;;;4979740;28;45288;-75
2024/03/24 00:41:26;;;;;;;;;3.00;3.00;;;;;;;;4980045;28;45301;-76
2024/03/24 00:43:51;;;;;;;;;3.00;2.67;;;;;;;;4979812;28;45314;-75
2024/03/24 00:46:17;;;;;;;;;3.00;3.00;;;;;;;;4979695;28;45565;-75
2024/03/24 00:48:42;;;;;;;;;2.00;2.00;;;;;;;;4961857;28;45822;-75
2024/03/24 00:51:07;;;;;;;;;3.00;3.00;;;;;;;;4979492;28;45420;-76
2024/03/24 00:53:33;;;;;;;;;2.00;2.00;;;;;;;;4979481;28;45347;-75
2024/03/24 00:55:58;;;;;;;;;4.67;4.33;;;;;;;;4979448;28;45439;-75
2024/03/24 00:58:23;;;;;;;;;3.00;3.00;;;;;;;;4995201;28;45412;-75
2024/03/24 01:00:49;;;;;;;;;2.00;1.00;;;;;;;;4999463;28;45207;-76
2024/03/24 01:03:15;;;;;;;;;3.00;3.00;;;;;;;;4999098;28;45531;-75
2024/03/24 01:05:40;;;;;;;;;3.00;3.00;;;;;;;;4998806;28;45446;-76
2024/03/24 01:08:05;;;;;;;;;3.00;3.00;;;;;;;;4998865;28;45235;-75
2024/03/24 01:10:30;;;;;;;;;3.67;3.67;;;;;;;;4983644;28;45562;-76
2024/03/24 01:12:55;;;;;;;;;4.00;2.00;;;;;;;;5000975;28;45927;-75
2024/03/24 01:15:21;;;;;;;;;4.00;2.67;;;;;;;;5018661;28;45526;-75
2024/03/24 01:17:46;;;;;;;;;3.67;3.67;;;;;;;;5018724;28;45377;-75
2024/03/24 01:20:11;;;;;;;;;3.33;2.67;;;;;;;;5018749;28;45286;-75
2024/03/24 01:22:40;;;;;;;;;5.00;4.00;;;;;;;;5000524;28;45912;-75
2024/03/24 01:25:06;;;;;;;;;2.33;2.33;;;;;;;;5000587;28;48490;-76
2024/03/24 01:27:31;;;;;;;;;2.00;2.00;;;;;;;;5017258;28;45275;-75
2024/03/24 01:29:56;;;;;;;;;3.33;3.33;;;;;;;;5017390;28;45337;-75
2024/03/24 01:32:21;;;;;;;;;1.67;1.67;;;;;;;;5020690;28;45513;-75
2024/03/24 01:34:47;;;;;;;;;1.67;0.67;;;;;;;;5021748;28;46206;-75
2024/03/24 01:37:12;;;;;;;;;3.33;3.33;;;;;;;;5021923;28;45477;-75
2024/03/24 01:39:37;;;;;;;;;2.00;1.67;;;;;;;;5022201;28;45500;-75
2024/03/24 01:42:02;;;;;;;;;2.00;2.00;;;;;;;;5004130;28;46550;-76
2024/03/24 01:44:29;;;;;;;;;2.00;2.00;;;;;;;;5021575;28;46283;-75
2024/03/24 01:46:54;;;;;;;;;1.00;1.00;;;;;;;;5022022;28;45358;-75
2024/03/24 01:49:19;;;;;;;;;3.00;2.00;;;;;;;;5021733;28;45226;-75
2024/03/24 01:51:44;;;;;;;;;2.00;1.00;;;;;;;;5021481;28;45265;-75
2024/03/24 01:54:10;;;;;;;;;1.00;1.00;;;;;;;;5021628;28;46046;-76
2024/03/24 01:56:36;;;;;;;;;2.00;2.00;;;;;;;;5020089;28;45353;-75
2024/03/24 01:59:01;;;;;;;;;2.33;2.33;;;;;;;;5001677;28;45342;-76
2024/03/24 02:01:26;;;;;;;;;2.33;1.33;;;;;;;;5001832;28;45448;-76
2024/03/24 02:03:51;;;;;;;;;1.00;1.00;;;;;;;;5001461;28;45301;-75
2024/03/24 02:06:16;;;;;;;;;2.00;2.00;;;;;;;;4996409;28;45248;-75
2024/03/24 02:08:42;;;;;;;;;1.00;1.00;;;;;;;;5001812;28;45566;-75
2024/03/24 02:11:07;;;;;;;;;2.00;2.00;;;;;;;;5001294;28;45213;-75
2024/03/24 02:13:32;;;;;;;;;1.33;1.33;;;;;;;;5001542;28;45210;-75
2024/03/24 02:15:57;;;;;;;;;1.00;1.00;;;;;;;;4982850;28;45987;-75
2024/03/24 02:18:22;;;;;;;;;2.00;2.00;;;;;;;;5000947;28;45309;-75
2024/03/24 02:20:47;;;;;;;;;1.00;1.00;;;;;;;;5001375;28;45443;-75
2024/03/24 02:23:13;;;;;;;;;2.00;2.00;;;;;;;;4983427;28;48631;-76
2024/03/24 02:25:38;;;;;;;;;2.00;2.00;;;;;;;;5001312;28;45336;-75
2024/03/24 02:28:03;;;;;;;;;1.00;1.00;;;;;;;;5001516;28;45309;-75
2024/03/24 02:30:29;;;;;;;;;1.67;1.67;;;;;;;;5001258;28;45596;-75
2024/03/24 02:32:54;;;;;;;;;2.00;2.00;;;;;;;;4983247;28;47319;-75
2024/03/24 02:35:19;;;;;;;;;1.00;1.00;;;;;;;;4983130;28;45420;-76
2024/03/24 02:37:44;;;;;;;;;2.00;2.00;;;;;;;;5000916;28;45321;-75
2024/03/24 02:40:10;;;;;;;;;2.00;2.00;;;;;;;;4999895;28;45345;-76
2024/03/24 02:42:35;;;;;;;;;1.00;1.00;;;;;;;;5000042;28;46315;-75
2024/03/24 02:45:01;;;;;;;;;1.00;1.00;;;;;;;;5001112;28;45359;-75
2024/03/24 02:47:26;;;;;;;;;2.00;2.00;;;;;;;;4983493;28;45312;-75
2024/03/24 02:49:51;;;;;;;;;1.33;1.33;;;;;;;;4982987;28;46084;-76
2024/03/24 02:52:16;;;;;;;;;2.00;1.00;;;;;;;;5000430;28;45625;-75
2024/03/24 02:54:41;;;;;;;;;2.67;2.67;;;;;;;;5000816;28;45451;-75
2024/03/24 02:57:07;;;;;;;;;1.00;1.00;;;;;;;;5006546;28;45858;-75
2024/03/24 02:59:32;;;;;;;;;2.00;2.00;;;;;;;;5020492;28;45449;-75
2024/03/24 03:01:57;;;;;;;;;2.00;1.00;;;;;;;;5020408;28;46151;-75
2024/03/24 03:04:22;;;;;;;;;2.00;2.00;;;;;;;;5020563;28;45319;-75
2024/03/24 03:06:47;;;;;;;;;1.00;1.00;;;;;;;;5002407;28;45344;-75
2024/03/24 03:09:16;;;;;;;;;2.33;2.33;;;;;;;;5002556;28;47166;-76
2024/03/24 03:11:41;;;;;;;;;1.00;1.00;;;;;;;;5002217;28;47183;-75
2024/03/24 03:14:07;;;;;;;;;2.00;2.00;;;;;;;;5020245;28;45220;-75
2024/03/24 03:16:32;;;;;;;;;1.67;1.67;;;;;;;;5020484;28;45219;-75
2024/03/24 03:18:57;;;;;;;;;1.33;1.33;;;;;;;;5020384;28;45207;-75
2024/03/24 03:21:22;;;;;;;;;2.33;2.00;;;;;;;;5002382;28;47227;-76
2024/03/24 03:23:48;;;;;;;;;1.67;1.67;;;;;;;;5020181;28;45430;-75
2024/03/24 03:26:13;;;;;;;;;3.00;1.00;;;;;;;;5020325;28;45721;-75
2024/03/24 03:28:38;;;;;;;;;1.00;1.00;;;;;;;;5020083;28;45346;-75
2024/03/24 03:31:03;;;;;;;;;2.00;1.67;;;;;;;;5019996;28;45470;-75
2024/03/24 03:33:28;;;;;;;;;4.00;2.00;;;;;;;;5019900;28;45325;-76
2024/03/24 03:35:54;;;;;;;;;0.67;0.67;;;;;;;;5002299;28;45378;-75
2024/03/24 03:38:19;;;;;;;;;2.00;1.00;;;;;;;;5019902;28;45480;-75
2024/03/24 03:40:44;;;;;;;;;2.00;2.00;;;;;;;;5020066;28;45495;-75
2024/03/24 03:43:10;;;;;;;;;2.00;2.00;;;;;;;;5019978;28;45309;-75
2024/03/24 03:45:35;;;;;;;;;2.00;2.00;;;;;;;;5020026;28;45318;-74
2024/03/24 03:48:01;;;;;;;;;4.00;2.67;;;;;;;;5001646;28;46806;-75
2024/03/24 03:50:33;;;;;;;;;2.00;1.67;;;;;;;;5001881;28;47076;-76
2024/03/24 03:52:59;;;;;;;;;2.67;1.33;;;;;;;;5019626;28;45472;-75
2024/03/24 03:55:24;;;;;;;;;2.00;2.00;;;;;;;;5019470;28;45261;-75
2024/03/24 03:57:49;;;;;;;;;2.00;1.67;;;;;;;;4990189;28;47141;-76
2024/03/24 04:00:15;;;;;;;;;3.00;3.00;;;;;;;;4999861;28;45451;-75
2024/03/24 04:02:41;;;;;;;;;2.00;2.00;;;;;;;;4999955;28;45250;-76
2024/03/24 04:05:07;;;;;;;;;2.33;1.67;;;;;;;;4999662;28;45278;-75
2024/03/24 04:07:36;;;;;;;;;2.00;2.00;;;;;;;;4999477;28;45326;-75
2024/03/24 04:10:02;;;;;;;;;1.67;1.00;;;;;;;;4999772;28;45270;-76
2024/03/24 04:12:28;;;;;;;;;4.33;2.00;;;;;;;;4999295;28;45247;-75
2024/03/24 04:14:53;;;;;;;;;1.00;1.00;;;;;;;;4999312;28;45302;-76
2024/03/24 04:17:19;;;;;;;;;2.00;1.00;;;;;;;;4999455;28;45360;-75
2024/03/24 04:19:44;;;;;;;;;2.00;2.00;;;;;;;;4980793;28;47281;-75
2024/03/24 04:22:09;;;;;;;;;2.67;2.67;;;;;;;;4998923;28;45292;-75
2024/03/24 04:24:34;;;;;;;;;2.00;2.00;;;;;;;;4981967;28;45335;-75
2024/03/24 04:26:59;;;;;;;;;1.00;1.00;;;;;;;;4999536;28;45360;-75
2024/03/24 04:29:25;;;;;;;;;2.33;2.33;;;;;;;;4999574;28;46387;-75
2024/03/24 04:31:50;;;;;;;;;2.67;2.67;;;;;;;;4999385;28;45430;-74
2024/03/24 04:34:16;;;;;;;;;3.00;1.00;;;;;;;;4981532;28;45315;-75
2024/03/24 04:36:41;;;;;;;;;3.33;1.67;;;;;;;;4999242;28;46458;-75
2024/03/24 04:39:12;;;;;;;;;4.00;3.00;;;;;;;;4999498;28;46453;-75
2024/03/24 04:41:37;;;;;;;;;3.33;2.33;;;;;;;;4981469;28;45698;-76
2024/03/24 04:44:02;;;;;;;;;3.67;2.00;;;;;;;;4981720;28;45287;-75
2024/03/24 04:46:28;;;;;;;;;3.00;3.00;;;;;;;;4981483;28;46938;-75
2024/03/24 04:48:53;;;;;;;;;2.00;2.00;;;;;;;;4998899;28;46118;-76
2024/03/24 04:51:19;;;;;;;;;1.33;1.33;;;;;;;;4999336;28;45309;-75
2024/03/24 04:53:44;;;;;;;;;3.67;1.67;;;;;;;;4999263;28;45339;-75
2024/03/24 04:56:10;;;;;;;;;1.67;1.67;;;;;;;;4999028;28;45254;-76
2024/03/24 04:58:35;;;;;;;;;3.33;1.33;;;;;;;;4998829;28;48438;-76
2024/03/24 05:01:01;;;;;;;;;1.33;1.33;;;;;;;;5018829;28;45397;-76
2024/03/24 05:03:26;;;;;;;;;3.67;1.00;;;;;;;;5019170;28;45365;-75
2024/03/24 05:05:51;;;;;;;;;0.33;0.33;;;;;;;;5002521;28;45741;-76
2024/03/24 05:08:16;;;;;;;;;3.00;2.00;;;;;;;;5022102;28;45827;-75
2024/03/24 05:10:42;;;;;;;;;1.00;1.00;;;;;;;;5022259;28;45281;-75
2024/03/24 05:13:08;;;;;;;;;3.00;1.00;;;;;;;;5022515;28;45396;-75
2024/03/24 05:15:34;;;;;;;;;1.67;1.67;;;;;;;;5004194;28;46855;-75
2024/03/24 05:18:00;;;;;;;;;1.00;1.00;;;;;;;;5022122;28;45365;-75
2024/03/24 05:20:25;;;;;;;;;3.00;2.00;;;;;;;;5022092;28;45230;-75
2024/03/24 05:22:50;;;;;;;;;1.00;1.00;;;;;;;;5004362;28;45448;-75
2024/03/24 05:25:17;;;;;;;;;0.00;0.00;;;;;;;;5022033;28;45325;-75
2024/03/24 05:27:42;;;;;;;;;1.00;1.00;;;;;;;;5021964;28;45326;-75
2024/03/24 05:30:08;;;;;;;;;3.33;2.00;;;;;;;;5022020;28;45364;-76
2024/03/24 05:32:33;;;;;;;;;3.00;1.67;;;;;;;;5004138;28;45807;-75
2024/03/24 05:34:59;;;;;;;;;1.67;1.33;;;;;;;;5021675;28;45413;-76
2024/03/24 05:37:24;;;;;;;;;0.33;0.33;;;;;;;;5021645;28;46147;-75
2024/03/24 05:39:49;;;;;;;;;1.33;1.33;;;;;;;;5022091;28;45346;-75
2024/03/24 05:42:15;;;;;;;;;2.00;1.00;;;;;;;;5004374;28;45330;-75
2024/03/24 05:44:40;;;;;;;;;1.67;1.67;;;;;;;;5017933;28;45417;-75
2024/03/24 05:47:05;;;;;;;;;0.00;0.00;;;;;;;;5001925;28;45376;-76
2024/03/24 05:49:30;;;;;;;;;2.33;1.67;;;;;;;;4983844;28;45970;-75
2024/03/24 05:51:57;;;;;;;;;1.00;1.00;;;;;;;;4984108;28;45393;-76
2024/03/24 05:54:23;;;;;;;;;2.00;1.00;;;;;;;;5001910;28;45325;-75
2024/03/24 05:56:48;;;;;;;;;3.00;2.00;;;;;;;;5004580;28;46207;-76
2024/03/24 05:59:13;;;;;;;;;2.00;2.00;;;;;;;;5021797;28;45281;-76
2024/03/24 06:01:38;;;;;;;;;2.67;1.00;;;;;;;;5021459;28;45385;-75
2024/03/24 06:04:03;;;;;;;;;0.00;0.00;;;;;;;;5021478;28;45252;-75
2024/03/24 06:06:28;;;;;;;;;1.00;1.00;;;;;;;;5021097;28;46296;-76
2024/03/24 06:08:54;;;;;;;;;1.33;1.33;;;;;;;;5003585;28;45360;-74
2024/03/24 06:11:19;;;;;;;;;2.00;1.00;;;;;;;;5021297;28;45337;-75
2024/03/24 06:13:44;;;;;;;;;2.67;2.67;;;;;;;;5003562;28;46053;-75
2024/03/24 06:16:10;;;;;;;;;1.67;1.00;;;;;;;;5020799;28;45290;-75
2024/03/24 06:18:36;;;;;;;;;1.00;1.00;;;;;;;;5020461;28;45260;-76
2024/03/24 06:21:01;;;;;;;;;2.00;2.00;;;;;;;;4992812;28;45471;-75
2024/03/24 06:23:26;;;;;;;;;2.33;1.00;;;;;;;;5001115;28;45564;-75
2024/03/24 06:25:51;;;;;;;;;2.00;1.33;;;;;;;;4983508;28;48252;-75
2024/03/24 06:28:16;;;;;;;;;3.00;1.67;;;;;;;;5001373;28;45467;-75
2024/03/24 06:30:42;;;;;;;;;2.00;2.00;;;;;;;;5001288;28;45298;-76
2024/03/24 06:33:07;;;;;;;;;3.67;1.00;;;;;;;;4983317;28;47149;-76
2024/03/24 06:35:32;;;;;;;;;1.33;0.67;;;;;;;;5000888;28;45329;-76
2024/03/24 06:37:57;;;;;;;;;3.00;2.00;;;;;;;;4983268;28;45293;-75
2024/03/24 06:40:25;;;;;;;;;2.00;2.00;;;;;;;;4983095;28;45538;-75
2024/03/24 06:42:59;;;;;;;;;2.00;1.00;;;;;;;;4983396;28;47013;-75
2024/03/24 06:45:31;;;;;;;;;5.00;2.33;;;;;;;;5001017;28;45341;-76
2024/03/24 06:47:59;;;;;;;;;1.00;1.00;;;;;;;;5000621;28;45230;-75
2024/03/24 06:50:24;;;;;;;;;2.33;2.33;;;;;;;;5000607;28;45490;-76
2024/03/24 06:52:52;;;;;;;;;2.00;2.00;;;;;;;;5000343;28;45344;-77
2024/03/24 06:55:17;;;;;;;;;1.00;1.00;;;;;;;;5000061;28;46049;-76
2024/03/24 06:57:42;;;;;;;;;3.00;1.00;;;;;;;;5001683;28;45282;-75
2024/03/24 07:00:08;;;;;;;;;1.00;1.00;;;;;;;;5000475;28;45500;-75
2024/03/24 07:02:33;;;;;;;;;4.00;1.33;;;;;;;;4996728;28;45300;-79
2024/03/24 07:04:58;;;;;;;;;1.67;1.67;;;;;;;;4999532;28;45470;-76
2024/03/24 07:07:24;;;;;;;;;2.67;2.00;;;;;;;;5000154;28;45425;-75
2024/03/24 07:09:49;;;;;;;;;2.00;2.00;;;;;;;;5000693;28;45301;-76
2024/03/24 07:12:14;;;;;;;;;4.00;2.00;;;;;;;;5000228;28;45443;-77
2024/03/24 07:14:39;;;;;;;;;4.00;3.67;;;;;;;;4999617;28;46018;-76
2024/03/24 07:17:04;;;;;;;;;6.00;5.67;;;;;;;;4999827;28;45228;-76
2024/03/24 07:19:29;;;;;;;;;4.00;4.00;;;;;;;;4982210;28;45325;-76
2024/03/24 07:21:55;;;;;;;;;4.00;3.00;;;;;;;;4981658;28;46430;-75
2024/03/24 07:24:20;;;;;;;;;2.00;1.00;;;;;;;;4999421;28;45396;-75
2024/03/24 07:26:45;;;;;;;;;4.33;3.00;;;;;;;;4982835;28;45232;-76
2024/03/24 07:29:10;;;;;;;;;2.67;2.67;;;;;;;;5000110;28;45491;-74
2024/03/24 07:31:35;;;;;;;;;2.00;2.00;;;;;;;;5000214;28;45434;-75
2024/03/24 07:34:00;;;;;;;;;3.33;3.00;;;;;;;;4999905;28;45956;-74
2024/03/24 07:36:26;;;;;;;;;2.67;2.00;;;;;;;;4999915;28;45221;-75
2024/03/24 07:38:52;;;;;;;;;2.00;2.00;;;;;;;;5000081;28;45246;-75
2024/03/24 07:41:19;;;;;;;;;5.00;2.67;;;;;;;;4999998;28;45266;-75
2024/03/24 07:43:45;;;;;;;;;2.67;2.67;;;;;;;;5000126;28;45354;-74
2024/03/24 07:46:11;;;;;;;;;4.00;3.00;;;;;;;;4982268;28;45406;-74
2024/03/24 07:48:37;;;;;;;;;3.67;1.00;;;;;;;;4981760;28;45366;-76
2024/03/24 07:51:02;;;;;;;;;3.00;3.00;;;;;;;;4999581;28;45397;-74
2024/03/24 07:53:27;;;;;;;;;3.00;2.00;;;;;;;;4999844;28;46719;-77
2024/03/24 07:55:52;;;;;;;;;5.67;4.67;;;;;;;;4981782;28;45455;-75
2024/03/24 07:58:17;;;;;;;;;3.00;2.00;;;;;;;;5008671;28;45309;-76
2024/03/24 08:00:42;;;;;;;;;5.33;4.00;;;;;;;;4999349;28;45355;-75
2024/03/24 08:03:08;;;;;;;;;3.00;3.00;;;;;;;;4980115;28;48693;-76
2024/03/24 08:05:33;;;;;;;;;4.67;2.00;;;;;;;;4981233;28;45320;-75
2024/03/24 08:07:58;;;;;;;;;2.00;2.00;;;;;;;;4981708;28;45363;-76
2024/03/24 08:10:24;;;;;;;;;4.33;4.00;;;;;;;;4999737;28;45503;-76
2024/03/24 08:12:49;;;;;;;;;2.00;2.00;;;;;;;;4999367;28;45489;-75
2024/03/24 08:15:14;;;;;;;;;2.00;2.00;;;;;;;;4999367;28;45365;-75
2024/03/24 08:17:39;;;;;;;;;3.33;3.33;;;;;;;;5000049;28;45218;-76
2024/03/24 08:20:06;;;;;;;;;4.33;3.00;;;;;;;;4981909;28;45929;-75
2024/03/24 08:22:31;;;;;;;;;3.00;1.67;;;;;;;;4981646;28;48041;-76
2024/03/24 08:24:56;;;;;;;;;4.00;3.67;;;;;;;;4981837;28;45207;-76
2024/03/24 08:27:21;;;;;;;;;3.33;3.00;;;;;;;;4999795;28;45231;-75
2024/03/24 08:29:47;;;;;;;;;4.00;4.00;;;;;;;;4981903;28;46353;-75
2024/03/24 08:32:13;;;;;;;;;2.67;2.67;;;;;;;;4981669;28;48358;-75
2024/03/24 08:34:38;;;;;;;;;2.67;2.67;;;;;;;;4999365;28;45396;-75
2024/03/24 08:37:03;;;;;;;;;3.00;3.00;;;;;;;;4981620;28;45980;-76
2024/03/24 08:39:28;;;;;;;;;2.00;2.00;;;;;;;;4999484;28;45293;-76
2024/03/24 08:41:57;;;;;;;;;3.00;2.00;;;;;;;;4984834;28;47861;-75
2024/03/24 08:44:22;;;;;;;;;2.00;2.00;;;;;;;;5003079;28;45395;-76
2024/03/24 08:46:47;;;;;;;;;2.00;2.00;;;;;;;;5003163;28;45503;-76
2024/03/24 08:49:12;;;;;;;;;2.00;2.00;;;;;;;;5002747;28;45424;-76
2024/03/24 08:51:38;;;;;;;;;0.67;0.67;;;;;;;;5002637;28;45449;-76
2024/03/24 08:54:03;;;;;;;;;2.00;2.00;;;;;;;;4985081;28;45295;-76
2024/03/24 08:56:28;;;;;;;;;5.00;4.00;;;;;;;;5003261;28;45365;-77
2024/03/24 08:58:53;;;;;;;;;3.00;3.00;;;;;;;;5004697;28;46117;-76
2024/03/24 09:01:19;;;;;;;;;3.00;3.00;;;;;;;;5022386;28;45511;-77
2024/03/24 09:03:44;;;;;;;;;4.00;3.00;;;;;;;;5022516;28;45484;-76
2024/03/24 09:06:09;;;;;;;;;2.00;2.00;;;;;;;;5022301;28;45329;-75
2024/03/24 09:08:34;;;;;;;;;1.67;1.67;;;;;;;;5022249;28;45210;-76
2024/03/24 09:11:00;;;;;;;;;3.00;3.00;;;;;;;;5021522;28;45806;-76
2024/03/24 09:13:25;;;;;;;;;2.00;2.00;;;;;;;;5022441;28;45211;-74
2024/03/24 09:15:51;;;;;;;;;2.00;2.00;;;;;;;;4987358;28;45326;-76
2024/03/24 09:18:16;;;;;;;;;3.00;2.00;;;;;;;;5002305;28;45287;-74
2024/03/24 09:20:41;;;;;;;;;3.67;3.67;;;;;;;;4984435;28;46996;-74
2024/03/24 09:23:06;;;;;;;;;2.67;2.67;;;;;;;;4984565;28;45369;-74
2024/03/24 09:25:31;;;;;;;;;1.67;1.67;;;;;;;;5002774;28;45152;-74
2024/03/24 09:27:57;;;;;;;;;2.00;2.00;;;;;;;;4984349;28;46160;-75
2024/03/24 09:30:22;;;;;;;;;2.00;2.00;;;;;;;;5001219;28;45975;-75
2024/03/24 09:32:47;;;;;;;;;2.33;2.33;;;;;;;;5002166;28;45219;-75
2024/03/24 09:35:12;;;;;;;;;3.00;2.00;;;;;;;;5002318;28;45388;-74
2024/03/24 09:37:38;;;;;;;;;3.67;2.00;;;;;;;;5001588;28;45587;-74
2024/03/24 09:40:04;;;;;;;;;3.33;2.00;;;;;;;;5001868;28;45435;-74
2024/03/24 09:42:29;;;;;;;;;2.00;2.00;;;;;;;;5001471;28;45383;-76
2024/03/24 09:44:55;;;;;;;;;5.00;3.00;;;;;;;;5001693;28;45432;-78
2024/03/24 09:47:21;;;;;;;;;2.00;1.67;;;;;;;;5001969;28;45276;-75
2024/03/24 09:49:47;;;;;;;;;4.33;3.67;;;;;;;;5001719;28;45421;-75
2024/03/24 09:52:16;;;;;;;;;3.00;3.00;;;;;;;;5001578;28;45368;-76
2024/03/24 09:54:41;;;;;;;;;6.00;3.67;;;;;;;;5001994;28;45301;-74
2024/03/24 09:57:07;;;;;;;;;4.67;4.67;;;;;;;;5007183;28;45302;-77
2024/03/24 09:59:35;;;;;;;;;8.00;8.00;;;;;;;;5003696;28;47082;-76
2024/03/24 10:02:00;;;;;;;;;8.33;7.33;;;;;;;;5003812;28;45973;-76
2024/03/24 10:04:26;;;;;;;;;3.33;3.00;;;;;;;;5021428;28;45311;-76
2024/03/24 10:06:51;;;;;;;;;3.00;3.00;;;;;;;;5003526;28;45491;-75
2024/03/24 10:09:17;;;;;;;;;5.67;3.67;;;;;;;;5021408;28;45293;-75
2024/03/24 10:11:42;;;;;;;;;3.00;2.67;;;;;;;;5021471;28;45408;-78
2024/03/24 10:14:07;;;;;;;;;5.67;4.00;;;;;;;;5021748;28;45426;-75
2024/03/24 10:16:33;;;;;;;;;5.00;5.00;;;;;;;;5021290;28;45290;-76
2024/03/24 10:19:08;;;;;;;;;7.67;6.33;;;;;;;;5021250;28;45959;-75
2024/03/24 10:21:33;;;;;;;;;4.33;4.33;;;;;;;;5021056;28;45352;-74
2024/03/24 10:23:59;;;;;;;;;7.33;4.00;;;;;;;;5021443;28;45406;-75
2024/03/24 10:26:24;;;;;;;;;6.67;6.67;;;;;;;;5021300;28;45298;-76
2024/03/24 10:28:50;;;;;;;;;5.00;5.00;;;;;;;;5021267;28;45342;-75
2024/03/24 10:31:15;;;;;;;;;8.33;8.33;;;;;;;;5003205;28;45250;-77
2024/03/24 10:33:40;;;;;;;;;5.00;5.00;;;;;;;;5020926;28;45433;-74
2024/03/24 10:36:06;;;;;;;;;5.00;5.00;;;;;;;;5002810;28;47419;-75
2024/03/24 10:38:31;;;;;;;;;6.33;6.33;;;;;;;;5020966;28;45214;-75
2024/03/24 10:40:57;;;;;;;;;5.67;5.67;;;;;;;;5003034;28;45349;-75
2024/03/24 10:43:23;;;;;;;;;5.00;5.00;;;;;;;;5021194;28;45147;-76
2024/03/24 10:45:49;;;;;;;;;6.33;5.33;;;;;;;;5003016;28;47227;-76
2024/03/24 10:48:17;;;;;;;;;5.00;5.00;;;;;;;;5002875;28;48235;-75
2024/03/24 10:50:43;;;;;;;;;7.67;7.00;;;;;;;;5002819;28;46187;-76
2024/03/24 10:53:10;;;;;;;;;4.67;4.67;;;;;;;;5002849;28;45345;-76
2024/03/24 10:55:36;;;;;;;;;7.00;6.00;;;;;;;;5002682;28;46364;-74
2024/03/24 10:58:02;;;;;;;;;7.00;7.00;;;;;;;;5003177;28;45368;-75
2024/03/24 11:00:28;;;;;;;;;5.33;5.33;;;;;;;;5007489;28;45353;-75
2024/03/24 11:02:53;;;;;;;;;7.67;4.67;;;;;;;;5006160;28;46215;-74
2024/03/24 11:05:19;;;;;;;;;6.00;4.67;;;;;;;;5014691;28;45441;-75
2024/03/24 11:07:45;;;;;;;;;5.67;4.00;;;;;;;;5013038;28;45676;-75
2024/03/24 11:10:10;;;;;;;;;7.00;5.00;;;;;;;;5003063;28;45562;-75
2024/03/24 11:12:36;;;;;;;;;8.67;7.67;;;;;;;;5009027;28;45301;-75
2024/03/24 11:15:02;;;;;;;;;12.67;11.00;;;;;;;;5011009;28;45769;-74
2024/03/24 11:17:27;;;;;;;;;9.33;6.33;;;;;;;;5020203;28;45958;-74
2024/03/24 11:19:52;;;;;;;;;6.00;6.00;;;;;;;;5002516;28;45799;-75
2024/03/24 11:22:36;;;;;;;;;17.67;17.33;;;;;;;;5008520;28;45373;-74
2024/03/24 11:25:05;;;;;;;;;10.67;7.33;;;;;;;;5000391;28;45525;-74
2024/03/24 11:27:30;;;;;;;;;5.00;3.33;;;;;;;;5000174;28;45287;-74
2024/03/24 11:29:56;;;;;;;;;5.67;4.67;;;;;;;;5000221;28;45210;-74
2024/03/24 11:32:23;;;;;;;;;6.00;4.67;;;;;;;;5000422;28;45329;-74
2024/03/24 11:34:57;;;;;;;;;5.00;4.33;;;;;;;;5000275;28;45511;-74
2024/03/24 11:37:29;;;;;;;;;8.00;6.33;;;;;;;;4982269;28;47178;-74
2024/03/24 11:39:54;;;;;;;;;4.33;4.33;;;;;;;;4982519;28;45417;-75
2024/03/24 11:42:27;;;;;;;;;13.33;13.33;;;;;;;;5001223;28;45264;-74
2024/03/24 11:44:53;;;;;;;;;7.50;7.50;;;;;;;;5002162;28;46253;-75
2024/03/24 11:47:18;;;;;;;;;7.67;6.33;;;;;;;;5007997;28;45447;-75
2024/03/24 11:49:45;;;;;;;;;3.33;2.33;;;;;;;;5000187;28;45309;-75
2024/03/24 11:52:13;;;;;;;;;4.00;4.00;;;;;;;;4982481;28;45304;-75
2024/03/24 11:54:39;;;;;;;;;11.00;6.00;;;;;;;;4982459;28;47069;-75
2024/03/24 11:57:05;;;;;;;;;4.33;4.33;;;;;;;;4999916;28;45307;-75
2024/03/24 11:59:32;;;;;;;;;9.00;5.00;;;;;;;;4999517;28;45494;-76
2024/03/24 12:01:57;;;;;;;;;7.00;7.00;;;;;;;;4998920;28;45337;-75
2024/03/24 12:04:24;;;;;;;;;6.67;6.67;;;;;;;;4998800;28;45305;-75
2024/03/24 12:06:49;;;;;;;;;4.67;3.33;;;;;;;;4998930;28;46344;-76
2024/03/24 12:09:15;;;;;;;;;7.00;4.00;;;;;;;;4998274;28;45729;-76
2024/03/24 12:11:40;;;;;;;;;5.33;5.33;;;;;;;;4986393;28;45310;-76
2024/03/24 12:14:07;;;;;;;;;4.67;4.67;;;;;;;;4997491;28;45422;-76
2024/03/24 12:16:33;;;;;;;;;5.67;5.33;;;;;;;;4989571;28;47425;-75
2024/03/24 12:18:58;;;;;;;;;3.33;2.33;;;;;;;;4998558;28;45480;-77
2024/03/24 12:21:24;;;;;;;;;4.00;3.33;;;;;;;;4998850;28;45414;-75
2024/03/24 12:23:49;;;;;;;;;4.00;3.00;;;;;;;;5001666;28;45456;-75
2024/03/24 12:26:21;;;;;;;;;4.00;4.00;;;;;;;;5018139;28;46455;-75
2024/03/24 12:28:52;;;;;;;;;6.67;4.00;;;;;;;;5018920;28;45349;-76
2024/03/24 12:31:18;;;;;;;;;6.00;5.33;;;;;;;;5018394;28;45392;-76
2024/03/24 12:33:43;;;;;;;;;2.33;2.33;;;;;;;;4999004;28;45776;-76
2024/03/24 12:36:08;;;;;;;;;4.67;4.00;;;;;;;;4998235;28;45341;-74
2024/03/24 12:38:34;;;;;;;;;5.00;5.00;;;;;;;;4984863;28;45438;-76
2024/03/24 12:40:59;;;;;;;;;4.33;4.33;;;;;;;;5018890;28;45505;-75
2024/03/24 12:43:28;;;;;;;;;7.00;3.33;;;;;;;;5011889;28;45487;-75
2024/03/24 12:45:54;;;;;;;;;4.00;3.67;;;;;;;;4980419;28;47460;-75
2024/03/24 12:48:20;;;;;;;;;4.00;4.00;;;;;;;;4998423;28;45345;-74
2024/03/24 12:50:46;;;;;;;;;5.00;5.00;;;;;;;;4975852;28;45331;-75
2024/03/24 12:53:35;;;;;;;;;5.67;5.67;;;;;;;;4975631;28;47105;-74
2024/03/24 12:56:01;;;;;;;;;6.33;6.00;;;;;;;;4992902;28;46152;-74
2024/03/24 12:58:32;;;;;;;;;8.33;8.33;;;;;;;;4991561;28;45930;-73
2024/03/24 13:00:58;;;;;;;;;7.00;7.00;;;;;;;;4993127;28;45336;-73
2024/03/24 13:03:24;;;;;;;;;5.00;4.33;;;;;;;;4995692;28;45495;-73
2024/03/24 13:05:49;;;;;;;;;4.00;4.00;;;;;;;;4997940;28;46432;-74
2024/03/24 13:08:14;;;;;;;;;4.33;4.00;;;;;;;;4997758;28;45245;-73
2024/03/24 13:10:40;;;;;;;;;4.67;4.67;;;;;;;;5005067;28;45201;-75
2024/03/24 13:13:05;;;;;;;;;6.33;4.00;;;;;;;;4980750;28;46288;-75
2024/03/24 13:15:34;;;;;;;;;4.67;4.67;;;;;;;;4996061;28;46029;-75
2024/03/24 13:18:04;;;;;;;;;3.50;3.50;;;;;;;;4998040;28;45313;-73
2024/03/24 13:20:29;;;;;;;;;3.00;3.00;;;;;;;;4980443;28;45660;-74
2024/03/24 13:22:57;;;;;;;;;3.33;3.33;;;;;;;;4997810;28;45512;-75
2024/03/24 13:25:23;;;;;;;;;4.00;3.00;;;;;;;;4979607;28;47629;-74
2024/03/24 13:27:59;;;;;;;;;8.00;8.00;;;;;;;;4997923;28;45464;-74
2024/03/24 13:30:24;;;;;;;;;11.00;10.67;;;;;;;;5000094;28;45317;-74
2024/03/24 13:32:50;;;;;;;;;6.67;5.67;;;;;;;;5000697;28;45394;-76
2024/03/24 13:35:16;;;;;;;;;11.00;8.33;;;;;;;;4979988;28;48347;-74
2024/03/24 13:37:49;;;;;;;;;7.33;5.00;;;;;;;;4999496;28;45368;-74
2024/03/24 13:40:33;;;;;;;;;6.00;6.00;;;;;;;;5008335;28;45273;-74
2024/03/24 13:42:58;;;;;;;;;5.00;5.00;;;;;;;;5000577;28;45490;-74
2024/03/24 13:45:25;;;;;;;;;9.00;6.50;;;;;;;;4977822;28;47552;-75
2024/03/24 13:48:12;;;;;;;;;12.00;9.33;;;;;;;;4997738;28;45357;-74
2024/03/24 13:50:37;;;;;;;;;6.00;5.00;;;;;;;;4999937;28;45369;-73
2024/03/24 13:53:03;;;;;;;;;8.67;7.33;;;;;;;;4999101;28;45443;-74
2024/03/24 13:55:28;;;;;;;;;6.67;6.00;;;;;;;;5000526;28;46325;-75
2024/03/24 13:57:53;;;;;;;;;9.00;8.00;;;;;;;;5001058;28;45459;-74
2024/03/24 14:00:19;;;;;;;;;5.00;3.00;;;;;;;;5000900;28;45497;-75
2024/03/24 14:02:44;;;;;;;;;5.00;5.00;;;;;;;;5001074;28;45416;-75
2024/03/24 14:05:10;;;;;;;;;5.67;5.67;;;;;;;;4982960;28;46851;-76
2024/03/24 14:07:35;;;;;;;;;20.00;17.00;;;;;;;;5000291;28;45254;-75
2024/03/24 14:10:04;;;;;;;;;5.33;5.33;;;;;;;;4981222;28;45468;-75
2024/03/24 14:12:40;;;;;;;;;9.33;8.67;;;;;;;;4997341;28;46201;-74
2024/03/24 14:15:24;;;;;;;;;5.67;4.33;;;;;;;;4995387;28;45300;-75
2024/03/24 14:18:01;;;;;;;;;5.67;4.67;;;;;;;;4984436;28;45565;-75
2024/03/24 14:20:30;;;;;;;;;4.00;4.00;;;;;;;;4985189;28;45538;-75
2024/03/24 14:23:05;;;;;;;;;2.67;2.33;;;;;;;;4995106;28;45235;-75
2024/03/24 14:25:31;;;;;;;;;5.33;5.33;;;;;;;;5000196;28;45469;-75
2024/03/24 14:27:56;;;;;;;;;10.00;8.00;;;;;;;;4981322;28;45858;-75
2024/03/24 14:30:21;;;;;;;;;6.00;6.00;;;;;;;;4995251;28;45302;-74
2024/03/24 14:32:48;;;;;;;;;8.33;6.33;;;;;;;;5019377;28;45246;-75
2024/03/24 14:35:13;;;;;;;;;4.00;3.00;;;;;;;;5015920;28;46295;-76